Kullen, Sweden

4:16 PM CEST on July 27, 2016 (GMT +0200)
Höganäs | | Change Station

Elev 0 ft 56.25 °N, 12.53 °E | Updated 1 minute ago

Mostly Cloudy
Mostly Cloudy
71.4 °F
Feels Like 76 °F
N
2.5
Wind Variable Wind from SSE
Gusts 6.8 mph

Today
High -- | Low -- °F
--% Chance of Precip.
Yesterday
High -- | Low -- °F
Precip. -- in
Pressure 29.98 in
Visibility 6.2 miles
Clouds Few 4100 ft
Mostly Cloudy 8600 ft
Heat Index 76 °F
Dew Point 58 °F
Humidity 61%
Rainfall 0.00 in
Snow Depth Not available.
5:03 AM 9:28 PM
Last Quarter, 43% visible
METAR ESTA 271350Z 15010KT 9999 FEW041 BKN086 22/14 Q1015
Pressure 29.98 in
Visibility 6.2 miles
Clouds Few 4100 ft
Mostly Cloudy 8600 ft
Heat Index 76 °F
Dew Point 58 °F
Humidity 61%
Rainfall 0.00 in
Snow Depth Not available.
5:03 AM 9:28 PM
Last Quarter, 43% visible
METAR ESTA 271350Z 15010KT 9999 FEW041 BKN086 22/14 Q1015

10-Day Weather Forecast

×

Almanac

Astronomy

Jul. 27, 2016 Rise Set
Actual Time
Civil Twilight
Nautical Twilight
Astronomical Twilight
Moon
Length of Visible Light
Length of Day
Tomorrow will be .
, % of the Moon is Illuminated

Today's Extremes

Country Highs Country Lows

Community

WunderPhotos

Upload Photos

1,927,846 photos uploaded!

WunderBlog® & News

Nearby

Air Quality

  Air Quality AQ Index Pollutant
Not available.

Snow Depth

Station Depth Elevation

Earthquake Activity

City Distance Mag. Time & Date
Minimum magnitude displayed is 2.5.

Coastal Water Temperatures

Place Temperature

Stations

Nearby Weather Stations

Station Location Temp. Windchill Dew Point Humidity Wind Precip. Elev Updated Type